createdAt,value
2023-03-24T00:02:03.178Z,91.80
2023-03-24T00:04:30.967Z,92.00
2023-03-24T00:06:58.323Z,92.00
2023-03-24T00:09:25.648Z,92.20
2023-03-24T00:11:53.992Z,92.20
2023-03-24T00:14:21.821Z,92.10
2023-03-24T00:16:52.833Z,92.20
2023-03-24T00:19:22.502Z,92.60
2023-03-24T00:21:49.879Z,92.30
2023-03-24T00:24:18.550Z,92.30
2023-03-24T00:26:46.734Z,92.30
2023-03-24T00:29:14.102Z,92.30
2023-03-24T00:31:47.210Z,92.30
2023-03-24T00:34:14.668Z,92.30
2023-03-24T00:36:42.047Z,92.50
2023-03-24T00:39:09.791Z,92.50
2023-03-24T00:41:37.349Z,92.60
2023-03-24T00:44:09.780Z,92.60
2023-03-24T00:46:39.000Z,92.50
2023-03-24T00:49:11.899Z,92.40
2023-03-24T00:51:41.413Z,92.50
2023-03-24T00:54:12.601Z,92.40
2023-03-24T00:56:41.156Z,92.30
2023-03-24T00:59:10.182Z,92.20
2023-03-24T01:01:41.033Z,92.20
2023-03-24T01:04:10.364Z,92.30
2023-03-24T01:06:39.316Z,92.30
2023-03-24T01:09:07.778Z,92.30
2023-03-24T01:11:39.019Z,92.30
2023-03-24T01:14:07.104Z,92.20
2023-03-24T01:16:34.549Z,92.40
2023-03-24T01:19:02.305Z,92.20
2023-03-24T01:21:31.810Z,92.20
2023-03-24T01:23:59.115Z,92.20
2023-03-24T01:26:27.149Z,92.20
2023-03-24T01:28:54.486Z,92.10
2023-03-24T01:31:21.808Z,92.40
2023-03-24T01:33:49.217Z,92.30
2023-03-24T01:36:17.889Z,92.40
2023-03-24T01:38:45.465Z,92.30
2023-03-24T01:41:13.295Z,92.20
2023-03-24T01:43:40.607Z,92.50
2023-03-24T01:46:19.866Z,92.20
2023-03-24T01:49:04.886Z,92.40
2023-03-24T01:51:43.332Z,92.40
2023-03-24T01:54:17.564Z,92.50
2023-03-24T01:57:18.090Z,92.80
2023-03-24T01:59:48.882Z,92.50
2023-03-24T02:02:45.732Z,92.50
2023-03-24T02:05:18.890Z,92.60
2023-03-24T02:07:55.557Z,92.50
2023-03-24T02:10:26.130Z,92.40
2023-03-24T02:12:53.736Z,92.50
2023-03-24T02:15:21.299Z,92.40
2023-03-24T02:18:07.871Z,92.50
2023-03-24T02:21:00.545Z,92.40
2023-03-24T02:23:50.101Z,92.30
2023-03-24T02:26:29.829Z,92.20
2023-03-24T02:29:21.843Z,92.20
2023-03-24T02:32:08.345Z,92.30
2023-03-24T02:35:10.560Z,92.20
2023-03-24T02:37:55.304Z,92.30
2023-03-24T02:40:32.858Z,92.10
2023-03-24T02:43:40.071Z,92.30
2023-03-24T02:46:35.831Z,92.40
2023-03-24T02:49:14.724Z,92.40
2023-03-24T02:52:11.052Z,92.70
2023-03-24T02:54:55.296Z,92.80
2023-03-24T02:57:31.488Z,93.30
2023-03-24T03:00:18.171Z,93.00
2023-03-24T03:03:11.749Z,93.10
2023-03-24T03:06:12.188Z,93.20
2023-03-24T03:08:41.314Z,93.10
2023-03-24T03:11:14.099Z,93.20
2023-03-24T03:13:44.685Z,93.30
2023-03-24T03:16:22.514Z,93.20
2023-03-24T03:18:55.323Z,93.30
2023-03-24T03:21:32.920Z,93.20
2023-03-24T03:24:15.789Z,93.20
2023-03-24T03:26:45.619Z,93.30
2023-03-24T03:29:18.911Z,93.40
2023-03-24T03:31:59.832Z,93.40
2023-03-24T03:34:47.068Z,93.20
2023-03-24T03:37:34.785Z,93.50
2023-03-24T03:40:31.726Z,93.40
2023-03-24T03:43:06.823Z,93.30
2023-03-24T03:45:35.543Z,93.40
2023-03-24T03:48:03.799Z,93.40
2023-03-24T03:50:31.973Z,93.50
2023-03-24T03:53:05.851Z,93.40
2023-03-24T03:55:35.438Z,93.40
2023-03-24T03:58:04.792Z,93.40
2023-03-24T04:00:44.349Z,93.40
2023-03-24T04:03:57.146Z,93.40
2023-03-24T04:07:07.974Z,93.10
2023-03-24T04:09:54.676Z,93.00
2023-03-24T04:12:41.036Z,93.00
2023-03-24T04:15:49.442Z,92.80
2023-03-24T04:18:59.883Z,92.80
2023-03-24T04:21:48.754Z,92.90
2023-03-24T04:24:32.708Z,93.10
2023-03-24T04:27:17.195Z,93.10
2023-03-24T04:30:06.432Z,93.40
2023-03-24T04:33:00.676Z,93.70
2023-03-24T04:35:40.689Z,93.80
2023-03-24T04:38:27.602Z,93.80
2023-03-24T04:41:17.947Z,94.10
2023-03-24T04:43:51.594Z,94.40
2023-03-24T04:46:19.653Z,94.60
2023-03-24T04:49:08.913Z,94.50
2023-03-24T04:51:39.336Z,94.50
2023-03-24T04:54:12.446Z,94.80
2023-03-24T04:56:48.765Z,94.90
2023-03-24T04:59:23.287Z,95.00
2023-03-24T05:01:51.548Z,95.10
2023-03-24T05:04:38.316Z,95.20
2023-03-24T05:07:15.388Z,95.10
2023-03-24T05:09:43.359Z,95.30
2023-03-24T05:12:12.848Z,95.40
2023-03-24T05:15:03.976Z,95.60
2023-03-24T05:17:33.186Z,95.50
2023-03-24T05:20:00.930Z,95.50
2023-03-24T05:22:30.804Z,95.50
2023-03-24T05:24:59.290Z,95.60
2023-03-24T05:27:27.179Z,95.70
2023-03-24T05:29:54.661Z,95.70
2023-03-24T05:32:26.096Z,95.90
2023-03-24T05:34:53.805Z,95.90
2023-03-24T05:37:29.370Z,96.00
2023-03-24T05:39:57.162Z,96.10
2023-03-24T05:42:35.928Z,96.20
2023-03-24T05:45:06.047Z,96.20
2023-03-24T05:47:34.192Z,96.10
2023-03-24T05:50:01.824Z,96.10
2023-03-24T05:52:31.617Z,96.20
2023-03-24T05:55:12.458Z,96.20
2023-03-24T05:57:47.358Z,96.10
2023-03-24T06:00:52.005Z,95.90
2023-03-24T06:03:35.043Z,95.80
2023-03-24T06:06:17.284Z,96.00
2023-03-24T06:08:47.772Z,96.20
2023-03-24T06:11:17.041Z,95.90
2023-03-24T06:14:03.575Z,96.20
2023-03-24T06:16:40.469Z,96.00
2023-03-24T06:19:09.692Z,96.10
2023-03-24T06:22:02.604Z,96.00
2023-03-24T06:24:34.598Z,96.00
2023-03-24T06:27:08.837Z,95.90
2023-03-24T06:29:36.795Z,95.60
2023-03-24T06:32:05.647Z,95.60
2023-03-24T06:34:41.324Z,95.40
2023-03-24T06:37:27.821Z,95.40
2023-03-24T06:39:57.413Z,95.30
2023-03-24T06:42:27.803Z,95.20
2023-03-24T06:44:55.690Z,94.90
2023-03-24T06:47:23.694Z,94.70
2023-03-24T06:49:51.341Z,94.70
2023-03-24T06:52:18.762Z,94.50
2023-03-24T06:54:46.536Z,94.60
2023-03-24T06:57:14.164Z,94.90
2023-03-24T07:00:05.572Z,94.60
2023-03-24T07:02:38.354Z,94.50
2023-03-24T07:05:08.703Z,94.60
2023-03-24T07:10:32.292Z,95.30
2023-03-24T07:13:01.087Z,94.90
2023-03-24T07:15:28.730Z,95.10
2023-03-24T07:17:56.645Z,94.80
2023-03-24T07:20:36.322Z,94.80
2023-03-24T07:23:14.892Z,94.90
2023-03-24T07:25:52.421Z,94.90
2023-03-24T07:28:37.038Z,95.00
2023-03-24T07:31:10.686Z,94.90
2023-03-24T07:33:38.695Z,94.90
2023-03-24T07:36:07.533Z,94.80
2023-03-24T07:38:37.210Z,94.80
2023-03-24T07:41:09.026Z,95.10
2023-03-24T07:43:41.479Z,95.60
2023-03-24T07:46:19.893Z,95.70
2023-03-24T07:48:47.518Z,96.10
2023-03-24T07:51:18.013Z,96.40
2023-03-24T07:53:59.393Z,96.50
2023-03-24T07:56:35.388Z,96.70
2023-03-24T07:59:03.404Z,96.50
2023-03-24T08:01:52.622Z,96.50
2023-03-24T08:04:33.447Z,96.50
2023-03-24T08:07:19.636Z,96.60
2023-03-24T08:09:46.995Z,96.50
2023-03-24T08:12:20.497Z,96.60
2023-03-24T08:14:48.514Z,96.70
2023-03-24T08:17:15.730Z,96.80
2023-03-24T08:19:58.453Z,96.90
2023-03-24T08:22:28.258Z,96.90
2023-03-24T08:24:55.580Z,97.00
2023-03-24T08:27:23.419Z,97.00
2023-03-24T08:29:51.166Z,97.00
2023-03-24T08:32:18.482Z,97.10
2023-03-24T08:34:49.918Z,97.10
2023-03-24T08:37:18.897Z,97.10
2023-03-24T08:39:49.379Z,97.40
2023-03-24T08:42:17.190Z,97.20
2023-03-24T08:44:45.285Z,97.50
2023-03-24T08:47:14.074Z,97.50
2023-03-24T08:49:41.583Z,97.00
2023-03-24T08:52:08.999Z,97.60
2023-03-24T08:54:36.922Z,97.70
2023-03-24T08:57:04.701Z,97.70
2023-03-24T08:59:32.090Z,97.80
2023-03-24T09:02:01.679Z,97.90
2023-03-24T09:07:27.517Z,97.70
2023-03-24T09:15:13.600Z,97.60
2023-03-24T09:17:41.645Z,96.80
2023-03-24T09:20:15.858Z,96.80
2023-03-24T09:22:46.011Z,96.10
2023-03-24T09:25:19.111Z,96.10
2023-03-24T09:27:47.517Z,95.80
2023-03-24T09:30:17.396Z,95.60
2023-03-24T09:32:45.721Z,95.70
2023-03-24T09:35:13.529Z,96.00
2023-03-24T09:37:46.122Z,95.80
2023-03-24T09:40:29.020Z,96.10
2023-03-24T09:43:18.309Z,95.90
2023-03-24T09:45:57.576Z,96.10
2023-03-24T09:48:28.060Z,96.00
2023-03-24T09:51:02.077Z,95.90
2023-03-24T09:53:54.653Z,95.80
2023-03-24T09:56:24.064Z,95.60
2023-03-24T09:59:13.472Z,95.30
2023-03-24T10:05:08.380Z,95.30
2023-03-24T10:07:59.781Z,95.20
2023-03-24T10:14:36.165Z,95.50
2023-03-24T10:17:32.308Z,95.60
2023-03-24T10:20:02.920Z,95.50
2023-03-24T10:22:56.016Z,95.60
2023-03-24T10:25:31.511Z,95.80
2023-03-24T10:28:20.077Z,95.20
2023-03-24T10:30:49.543Z,95.00
2023-03-24T10:33:18.358Z,94.80
2023-03-24T10:35:58.826Z,94.80
2023-03-24T10:38:26.932Z,94.90
2023-03-24T10:40:55.433Z,95.30
2023-03-24T10:43:25.733Z,95.70
2023-03-24T10:45:55.508Z,95.60
2023-03-24T10:48:41.554Z,95.60
2023-03-24T10:51:32.395Z,96.20
2023-03-24T10:54:18.348Z,96.30
2023-03-24T10:56:51.792Z,96.10
2023-03-24T10:59:50.739Z,95.60
2023-03-24T11:02:42.246Z,95.30
2023-03-24T11:05:19.642Z,95.80
2023-03-24T11:07:50.572Z,95.50
2023-03-24T11:10:24.398Z,95.70
2023-03-24T11:12:55.001Z,95.20
2023-03-24T11:15:27.020Z,94.50
2023-03-24T11:18:01.826Z,94.70
2023-03-24T11:20:39.780Z,95.10
2023-03-24T11:23:30.916Z,95.50
2023-03-24T11:26:27.393Z,96.00
2023-03-24T11:29:02.608Z,95.60
2023-03-24T11:31:34.798Z,96.10
2023-03-24T11:34:27.342Z,95.60
2023-03-24T11:37:48.618Z,96.00
2023-03-24T11:40:26.327Z,95.80
2023-03-24T11:43:03.972Z,95.20
2023-03-24T11:45:42.239Z,95.50
2023-03-24T11:48:32.034Z,94.80
2023-03-24T11:51:02.425Z,94.80
2023-03-24T11:53:49.086Z,94.90
2023-03-24T11:56:31.659Z,94.60
2023-03-24T11:59:22.453Z,93.90
2023-03-24T12:02:01.403Z,94.00
2023-03-24T12:04:42.687Z,93.50
2023-03-24T12:07:25.733Z,92.90
2023-03-24T12:10:06.245Z,92.70
2023-03-24T12:13:22.114Z,92.60
2023-03-24T12:16:13.217Z,92.00
2023-03-24T12:19:08.514Z,91.10
2023-03-24T12:21:47.177Z,90.70
2023-03-24T12:24:43.891Z,90.50
2023-03-24T12:27:37.618Z,87.60
2023-03-24T12:30:35.175Z,84.80
2023-03-24T12:33:27.200Z,87.60
2023-03-24T12:36:21.121Z,85.00
2023-03-24T12:38:51.290Z,82.70
2023-03-24T12:41:31.310Z,82.20
2023-03-24T12:44:18.697Z,82.80
2023-03-24T12:47:07.301Z,82.30
2023-03-24T12:50:05.722Z,79.80
2023-03-24T12:52:58.110Z,80.30
2023-03-24T12:55:46.829Z,78.80
2023-03-24T12:58:32.654Z,78.30
2023-03-24T13:02:00.702Z,73.60
2023-03-24T13:04:37.806Z,74.70
2023-03-24T13:07:14.659Z,73.60
2023-03-24T13:09:59.341Z,74.10
2023-03-24T13:12:34.186Z,70.90
2023-03-24T13:15:36.250Z,70.20
2023-03-24T13:18:10.889Z,71.20
2023-03-24T13:20:53.243Z,69.50
2023-03-24T13:23:38.384Z,70.00
2023-03-24T13:26:19.063Z,68.90
2023-03-24T13:29:04.475Z,69.00
2023-03-24T13:31:47.760Z,69.70
2023-03-24T13:34:52.644Z,68.10
2023-03-24T13:37:43.160Z,69.90
2023-03-24T13:40:39.487Z,68.70
2023-03-24T13:43:12.103Z,71.60
2023-03-24T13:45:53.147Z,71.00
2023-03-24T13:48:38.339Z,68.50
2023-03-24T13:51:31.593Z,65.50
2023-03-24T13:54:07.564Z,67.20
2023-03-24T13:57:05.822Z,66.20
2023-03-24T13:59:45.375Z,64.50
2023-03-24T14:02:40.834Z,64.30
2023-03-24T14:05:11.498Z,64.80
2023-03-24T14:07:44.371Z,65.20
2023-03-24T14:10:48.706Z,64.30
2023-03-24T14:13:16.201Z,65.40
2023-03-24T14:15:57.493Z,64.70
2023-03-24T14:18:26.444Z,65.60
2023-03-24T14:20:56.924Z,66.10
2023-03-24T14:23:25.308Z,67.00
2023-03-24T14:25:55.513Z,65.80
2023-03-24T14:28:44.642Z,65.20
2023-03-24T14:31:15.616Z,64.50
2023-03-24T14:33:54.429Z,65.10
2023-03-24T14:36:42.376Z,65.60
2023-03-24T14:39:37.433Z,65.70
2023-03-24T14:42:41.735Z,64.90
2023-03-24T14:45:46.676Z,66.20
2023-03-24T14:48:23.824Z,65.60
2023-03-24T14:50:53.977Z,64.80
2023-03-24T14:53:23.382Z,64.20
2023-03-24T14:55:54.409Z,64.10
2023-03-24T14:58:49.926Z,64.50
2023-03-24T15:01:18.088Z,64.60
2023-03-24T15:04:08.213Z,63.80
2023-03-24T15:06:47.404Z,64.60
2023-03-24T15:09:17.173Z,64.60
2023-03-24T15:11:46.980Z,63.80
2023-03-24T15:14:21.602Z,63.40
2023-03-24T15:17:22.541Z,63.70
2023-03-24T15:19:53.619Z,65.60
2023-03-24T15:22:22.458Z,64.30
2023-03-24T15:24:52.240Z,64.90
2023-03-24T15:27:29.120Z,64.80
2023-03-24T15:29:59.569Z,65.80
2023-03-24T15:32:32.767Z,65.00
2023-03-24T15:35:06.097Z,64.40
2023-03-24T15:37:41.470Z,64.30
2023-03-24T15:40:27.579Z,64.60
2023-03-24T15:43:01.429Z,64.10
2023-03-24T15:45:38.143Z,63.40
2023-03-24T15:48:14.372Z,64.00
2023-03-24T15:51:04.475Z,64.30
2023-03-24T15:53:55.701Z,64.10
2023-03-24T15:56:36.285Z,65.20
2023-03-24T15:59:04.163Z,65.10
2023-03-24T16:01:36.613Z,64.40
2023-03-24T16:04:18.990Z,63.60
2023-03-24T16:06:55.489Z,65.90
2023-03-24T16:09:37.019Z,65.80
2023-03-24T16:12:10.235Z,65.20
2023-03-24T16:14:41.152Z,65.70
2023-03-24T16:17:10.675Z,64.10
2023-03-24T16:20:21.190Z,64.80
2023-03-24T16:22:50.609Z,65.30
2023-03-24T16:25:48.875Z,64.40
2023-03-24T16:28:31.240Z,64.00
2023-03-24T16:31:04.903Z,64.50
2023-03-24T16:33:34.288Z,64.00
2023-03-24T16:36:06.456Z,63.40
2023-03-24T16:38:40.121Z,63.60
2023-03-24T16:41:19.994Z,64.00
2023-03-24T16:43:54.165Z,63.50
2023-03-24T16:49:21.211Z,64.60
2023-03-24T16:52:28.058Z,63.80
2023-03-24T16:55:00.737Z,64.80
2023-03-24T16:57:51.661Z,63.40
2023-03-24T17:00:32.539Z,64.20
2023-03-24T17:03:05.059Z,64.70
2023-03-24T17:05:52.261Z,64.30
2023-03-24T17:08:45.604Z,64.80
2023-03-24T17:11:34.555Z,63.70
2023-03-24T17:14:12.537Z,63.60
2023-03-24T17:16:49.994Z,62.30
2023-03-24T17:19:22.784Z,61.80
2023-03-24T17:22:04.816Z,62.40
2023-03-24T17:24:44.580Z,62.80
2023-03-24T17:27:21.398Z,62.30
2023-03-24T17:29:53.170Z,62.60
2023-03-24T17:32:31.204Z,61.60
2023-03-24T17:35:01.829Z,62.00
2023-03-24T17:37:36.884Z,61.00
2023-03-24T17:40:13.792Z,60.40
2023-03-24T17:42:53.220Z,60.70
2023-03-24T17:49:33.720Z,61.40
2023-03-24T17:52:16.861Z,60.30
2023-03-24T18:01:09.261Z,60.70
2023-03-24T18:11:47.331Z,61.30
2023-03-24T18:17:40.351Z,62.30
2023-03-24T18:24:51.218Z,64.80
2023-03-24T18:27:23.215Z,63.20
2023-03-24T18:52:20.243Z,65.40
2023-03-24T19:09:37.061Z,66.30
2023-03-24T19:12:07.153Z,67.00
2023-03-24T19:15:56.232Z,66.40
2023-03-24T19:34:20.432Z,67.60
2023-03-24T19:40:13.389Z,67.30
2023-03-24T19:43:16.023Z,68.50
2023-03-24T20:06:44.281Z,71.50
2023-03-24T20:09:16.219Z,72.20
2023-03-24T20:11:57.908Z,72.60
2023-03-24T20:30:15.316Z,72.30
2023-03-24T22:23:03.743Z,79.00
2023-03-24T23:42:37.678Z,86.90
